Time;durP1;ratioP1;P1;durP2;ratioP2;P2;SDS_P1;SDS_P2;PMS_P1;PMS_P2;Temp;Humidity;BMP_temperature;BMP_pressure;BME280_temperature;BME280_humidity;BME280_pressure;Samples;Min_cycle;Max_cycle;Signal;HPM_P1;HPM_P2
2021/06/15 00:01:34;;;;;;;1.50;1.40;;;;;;;21.09;43.36;100289.28;6311952;22;20006;-72
2021/06/15 00:04:01;;;;;;;4.10;1.50;;;;;;;20.98;44.46;100287.84;6312110;22;20002;-72
2021/06/15 00:06:31;;;;;;;4.00;1.70;;;;;;;20.85;44.26;100273.56;6339502;22;19999;-71
2021/06/15 00:09:00;;;;;;;2.95;1.80;;;;;;;20.89;44.17;100288.44;6311681;22;20434;-71
2021/06/15 00:11:28;;;;;;;2.38;1.48;;;;;;;20.88;43.78;100290.47;6311542;22;20010;-71
2021/06/15 00:13:57;;;;;;;1.85;1.58;;;;;;;20.85;43.34;100291.31;6311623;22;20444;-71
2021/06/15 00:16:28;;;;;;;1.58;1.48;;;;;;;20.90;43.00;100288.00;6311996;22;19999;-71
2021/06/15 00:18:57;;;;;;;1.83;1.67;;;;;;;20.60;43.22;100293.75;6311585;22;20007;-71
2021/06/15 00:21:26;;;;;;;3.83;2.00;;;;;;;20.59;43.14;100286.50;6312012;22;20427;-71
2021/06/15 00:23:51;;;;;;;1.80;1.70;;;;;;;20.45;43.15;100290.31;6312346;22;20007;-70
2021/06/15 00:26:23;;;;;;;1.50;1.40;;;;;;;20.43;42.29;100298.44;6311918;22;20037;-71
2021/06/15 00:28:53;;;;;;;1.65;1.40;;;;;;;20.40;41.58;100294.47;6311555;22;20106;-71
2021/06/15 00:31:23;;;;;;;2.03;1.30;;;;;;;20.50;41.51;100303.19;6311923;22;20011;-71
2021/06/15 00:33:51;;;;;;;1.92;1.52;;;;;;;20.51;41.24;100297.16;6311505;22;19999;-71
2021/06/15 00:36:23;;;;;;;1.33;1.23;;;;;;;20.54;41.66;100299.09;6313252;22;19999;-71
2021/06/15 00:38:51;;;;;;;1.23;1.17;;;;;;;20.42;39.91;100297.66;6313630;22;20030;-71
2021/06/15 00:41:22;;;;;;;1.35;1.25;;;;;;;20.40;39.87;100300.09;6332613;22;20014;-70
2021/06/15 00:43:51;;;;;;;1.45;1.13;;;;;;;20.46;37.84;100293.97;6339606;22;20006;-71
2021/06/15 00:46:19;;;;;;;1.55;1.17;;;;;;;20.37;39.79;100288.84;6339962;22;20044;-71
2021/06/15 00:48:45;;;;;;;1.05;1.05;;;;;;;20.25;38.81;100276.13;6339596;22;20011;-71
2021/06/15 00:51:15;;;;;;;3.08;1.30;;;;;;;20.21;37.70;100277.41;6339612;22;20006;-72
2021/06/15 00:53:44;;;;;;;2.20;1.10;;;;;;;20.18;37.88;100281.84;6340245;22;20010;-71
2021/06/15 00:56:09;;;;;;;1.23;0.98;;;;;;;20.17;38.44;100285.91;6339956;22;20006;-71
2021/06/15 00:58:38;;;;;;;1.05;1.05;;;;;;;20.31;39.78;100288.53;6339534;22;20434;-70
2021/06/15 01:01:07;;;;;;;1.40;1.13;;;;;;;20.30;39.90;100292.59;6339467;22;20083;-71
2021/06/15 01:03:42;;;;;;;2.08;1.30;;;;;;;20.22;41.40;100299.56;6339086;22;20466;-72
2021/06/15 01:06:17;;;;;;;2.03;1.38;;;;;;;20.13;42.80;100304.94;6339421;22;20006;-70
2021/06/15 01:08:59;;;;;;;1.27;1.17;;;;;;;20.12;43.08;100306.16;6339317;22;20010;-72
2021/06/15 01:11:39;;;;;;;1.38;1.27;;;;;;;20.04;42.98;100304.69;6339352;22;20078;-70
2021/06/15 01:14:11;;;;;;;1.45;1.15;;;;;;;19.83;42.93;100272.69;6339295;22;20006;-71
2021/06/15 01:17:26;;;;;;;1.30;1.05;;;;;;;19.99;37.75;100291.03;6339586;22;20419;-72
2021/06/15 01:20:15;;;;;;;1.00;0.90;;;;;;;19.41;37.93;100239.34;6338715;22;20007;-71
2021/06/15 01:22:43;;;;;;;1.17;1.10;;;;;;;19.99;37.72;100300.31;6340757;22;20006;-72
2021/06/15 01:25:34;;;;;;;1.45;1.35;;;;;;;19.76;37.95;100271.97;6339171;22;20002;-71
2021/06/15 01:28:08;;;;;;;1.55;1.13;;;;;;;19.93;37.94;100295.56;6339150;22;20006;-74
2021/06/15 01:31:08;;;;;;;1.30;1.20;;;;;;;19.95;39.27;100295.91;6339835;22;20103;-70
2021/06/15 01:33:38;;;;;;;1.52;1.10;;;;;;;19.92;39.04;100300.41;6330206;22;20112;-71
2021/06/15 01:36:09;;;;;;;0.85;0.85;;;;;;;19.87;39.65;100281.13;6339412;22;20457;-70
2021/06/15 01:38:41;;;;;;;0.80;0.80;;;;;;;20.00;39.89;100298.28;6339039;22;20007;-71
2021/06/15 01:41:13;;;;;;;1.20;1.02;;;;;;;19.99;41.11;100299.50;6338621;22;20346;-70
2021/06/15 01:43:57;;;;;;;2.85;0.95;;;;;;;19.93;40.30;100295.56;6338918;22;20031;-71
2021/06/15 01:46:28;;;;;;;3.63;1.10;;;;;;;19.94;41.03;100289.47;6338530;22;20040;-71
2021/06/15 01:49:03;;;;;;;3.85;1.42;;;;;;;19.95;40.79;100295.91;6339340;22;20008;-70
2021/06/15 01:51:33;;;;;;;0.95;0.90;;;;;;;19.95;41.85;100291.06;6341279;22;20003;-71
2021/06/15 01:54:09;;;;;;;1.33;1.23;;;;;;;19.89;41.96;100293.56;6339689;22;20007;-72
2021/06/15 01:56:37;;;;;;;1.00;1.00;;;;;;;19.84;41.40;100284.78;6338921;22;20007;-71
2021/06/15 01:59:06;;;;;;;1.25;1.15;;;;;;;19.68;42.20;100293.06;6313336;22;20021;-71
2021/06/15 02:01:39;;;;;;;1.00;1.00;;;;;;;19.59;43.85;100296.38;6339181;22;20086;-70
2021/06/15 02:04:05;;;;;;;2.35;1.40;;;;;;;19.52;43.12;100287.97;6338798;22;20006;-71
2021/06/15 02:06:33;;;;;;;1.30;1.20;;;;;;;19.42;43.25;100288.91;6338809;22;20011;-71
2021/06/15 02:09:02;;;;;;;1.00;0.90;;;;;;;19.48;42.37;100284.38;6339138;22;20084;-70
2021/06/15 02:11:31;;;;;;;1.10;1.00;;;;;;;19.31;43.27;100292.63;6339506;22;20007;-71
2021/06/15 02:14:02;;;;;;;1.30;1.20;;;;;;;19.29;43.92;100295.09;6338780;22;20006;-71
2021/06/15 02:16:29;;;;;;;1.58;1.10;;;;;;;19.13;43.41;100280.75;6341111;22;20013;-71
2021/06/15 02:19:00;;;;;;;1.38;1.27;;;;;;;19.15;44.21;100286.78;6338819;22;20041;-71
2021/06/15 02:21:27;;;;;;;1.13;1.02;;;;;;;19.17;43.11;100294.81;6338343;22;20034;-71
2021/06/15 02:23:59;;;;;;;1.50;1.13;;;;;;;19.04;41.80;100289.69;6338623;22;20006;-71
2021/06/15 02:26:32;;;;;;;1.02;1.02;;;;;;;19.00;41.13;100288.13;6338707;22;20007;-71
2021/06/15 02:28:59;;;;;;;1.83;1.20;;;;;;;18.88;41.74;100292.28;6339068;22;20029;-70
2021/06/15 02:31:31;;;;;;;1.30;1.20;;;;;;;18.91;41.24;100296.25;6338626;22;20081;-71
2021/06/15 02:34:09;;;;;;;1.73;1.30;;;;;;;18.82;41.12;100294.75;6338628;22;20056;-71
2021/06/15 02:36:37;;;;;;;1.23;1.20;;;;;;;18.85;42.13;100301.56;6338563;22;20018;-70
2021/06/15 02:39:10;;;;;;;2.53;1.20;;;;;;;18.80;42.73;100297.19;6338570;22;20002;-71
2021/06/15 02:41:38;;;;;;;2.73;1.00;;;;;;;18.86;42.58;100296.75;6311976;22;20072;-71
2021/06/15 02:44:06;;;;;;;1.05;0.93;;;;;;;18.89;42.35;100293.06;6312626;22;20007;-70
2021/06/15 02:46:36;;;;;;;1.10;1.00;;;;;;;18.90;42.13;100300.31;6339127;22;20010;-70
2021/06/15 02:49:08;;;;;;;1.70;1.10;;;;;;;18.89;41.82;100295.88;6340128;22;20074;-70
2021/06/15 02:51:42;;;;;;;1.00;1.00;;;;;;;18.80;41.16;100290.72;6339458;22;20042;-70
2021/06/15 02:54:25;;;;;;;1.42;0.95;;;;;;;18.87;41.46;100299.13;6338603;22;20003;-71
2021/06/15 02:56:53;;;;;;;1.33;1.00;;;;;;;18.91;41.29;100296.25;6338427;22;20002;-72
2021/06/15 02:59:20;;;;;;;2.78;1.25;;;;;;;18.98;40.03;100307.50;6340018;22;20101;-70
2021/06/15 03:01:50;;;;;;;1.42;1.13;;;;;;;18.93;41.21;100299.47;6338449;22;20011;-71
2021/06/15 03:04:18;;;;;;;1.10;1.00;;;;;;;18.97;40.24;100312.34;6338616;22;20083;-70
2021/06/15 03:06:47;;;;;;;2.08;0.77;;;;;;;18.98;39.86;100316.75;6338307;22;20060;-71
2021/06/15 03:09:14;;;;;;;1.58;1.02;;;;;;;19.04;40.60;100315.06;6338269;22;20005;-71
2021/06/15 03:11:48;;;;;;;1.30;1.05;;;;;;;19.10;40.23;100316.22;6338275;22;20014;-71
2021/06/15 03:14:30;;;;;;;7.88;1.27;;;;;;;18.98;40.66;100313.94;6338237;22;20078;-71
2021/06/15 03:17:00;;;;;;;2.95;1.13;;;;;;;18.84;40.58;100320.50;6339092;22;20006;-71
2021/06/15 03:19:38;;;;;;;1.40;1.10;;;;;;;18.88;41.48;100328.13;6338305;22;20064;-71
2021/06/15 03:22:13;;;;;;;1.08;0.90;;;;;;;18.92;40.15;100329.69;6338200;22;20038;-71
2021/06/15 03:25:12;;;;;;;0.77;0.77;;;;;;;19.00;40.59;100330.41;6338515;22;20006;-71
2021/06/15 03:28:03;;;;;;;0.93;0.90;;;;;;;18.89;41.43;100322.06;6309838;22;20091;-71
2021/06/15 03:30:33;;;;;;;4.57;2.33;;;;;;;18.89;41.75;100321.25;6319885;22;20014;-71
2021/06/15 03:33:04;;;;;;;2.38;1.35;;;;;;;18.90;40.98;100332.13;6338227;22;20007;-71
2021/06/15 03:35:32;;;;;;;1.20;1.20;;;;;;;18.90;43.10;100334.94;6338584;22;20034;-72
2021/06/15 03:38:04;;;;;;;3.35;1.13;;;;;;;18.78;41.19;100338.25;6338239;22;20013;-72
2021/06/15 03:40:35;;;;;;;1.17;1.08;;;;;;;18.90;40.88;100336.94;6312446;22;20026;-71
2021/06/15 03:43:02;;;;;;;0.77;0.77;;;;;;;18.78;42.43;100343.91;6339157;22;20007;-71
2021/06/15 03:45:34;;;;;;;1.25;1.15;;;;;;;18.78;42.34;100350.34;6338170;22;20029;-71
2021/06/15 03:48:02;;;;;;;2.53;1.55;;;;;;;18.78;43.68;100358.78;6338164;22;20028;-72
2021/06/15 03:50:33;;;;;;;2.67;1.13;;;;;;;18.84;43.76;100357.13;6339304;22;20010;-71
2021/06/15 03:53:00;;;;;;;5.85;2.78;;;;;;;18.79;44.23;100357.56;6338001;22;20461;-72
2021/06/15 03:55:29;;;;;;;4.55;2.47;;;;;;;18.83;44.44;100360.38;6338121;22;20445;-71
2021/06/15 03:57:57;;;;;;;3.00;2.60;;;;;;;18.98;44.85;100352.59;6338774;22;20034;-72
2021/06/15 04:00:24;;;;;;;2.15;1.80;;;;;;;19.70;44.00;100359.13;6337584;22;20014;-72
2021/06/15 04:02:56;;;;;;;4.43;1.38;;;;;;;20.11;42.74;100339.25;6338664;22;20002;-71
2021/06/15 04:05:28;;;;;;;1.50;1.20;;;;;;;20.85;41.08;100369.69;6339678;22;20082;-71
2021/06/15 04:08:04;;;;;;;4.40;1.48;;;;;;;21.21;40.25;100366.28;6338012;22;20427;-72
2021/06/15 04:10:31;;;;;;;1.45;1.35;;;;;;;21.64;39.41;100377.63;6338047;22;20003;-72
2021/06/15 04:13:01;;;;;;;2.20;1.20;;;;;;;21.96;38.78;100377.78;6338684;22;20373;-71
2021/06/15 04:15:27;;;;;;;3.20;1.45;;;;;;;22.26;38.77;100387.28;6337934;22;20445;-71
2021/06/15 04:17:58;;;;;;;2.65;1.02;;;;;;;22.41;37.89;100379.28;6338223;22;20338;-71
2021/06/15 04:20:34;;;;;;;1.02;0.93;;;;;;;22.86;37.61;100390.78;6339079;22;20002;-73
2021/06/15 04:23:07;;;;;;;1.45;1.25;;;;;;;23.23;36.94;100385.84;6337432;22;20060;-70
2021/06/15 04:25:41;;;;;;;2.67;1.40;;;;;;;23.53;36.52;100391.09;6337908;22;20057;-70
2021/06/15 04:28:10;;;;;;;2.63;1.10;;;;;;;23.96;36.30;100387.09;6337486;22;19999;-71
2021/06/15 04:30:38;;;;;;;1.00;1.00;;;;;;;24.21;35.48;100392.06;6338802;22;20014;-70
2021/06/15 04:33:16;;;;;;;1.77;0.90;;;;;;;24.24;35.00;100390.38;6336611;22;20034;-70
2021/06/15 04:35:46;;;;;;;1.33;1.20;;;;;;;24.70;34.31;100388.16;6337712;22;20010;-71
2021/06/15 04:38:22;;;;;;;2.22;1.00;;;;;;;24.88;34.09;100388.38;6337204;22;20003;-70
2021/06/15 04:40:57;;;;;;;3.58;1.45;;;;;;;25.27;34.04;100380.59;6337272;22;20015;-71
2021/06/15 04:43:32;;;;;;;2.25;1.10;;;;;;;25.60;32.30;100379.00;6338201;22;20012;-71
2021/06/15 04:46:32;;;;;;;1.42;1.25;;;;;;;25.75;32.20;100407.03;6337636;22;20007;-72
2021/06/15 04:49:05;;;;;;;2.33;1.20;;;;;;;25.69;32.08;100406.00;6336177;22;20438;-72
2021/06/15 04:51:34;;;;;;;1.33;1.02;;;;;;;25.82;30.96;100406.75;6337852;22;20007;-72
2021/06/15 04:54:04;;;;;;;1.55;1.20;;;;;;;26.56;30.85;100417.41;6338258;22;20011;-71
2021/06/15 04:56:30;;;;;;;3.90;1.00;;;;;;;26.02;30.25;100407.22;6337873;22;20006;-70
2021/06/15 04:58:59;;;;;;;1.67;1.20;;;;;;;26.39;30.39;100408.25;6339842;22;20010;-70
2021/06/15 05:01:26;;;;;;;0.95;0.95;;;;;;;26.53;30.26;100409.00;6337372;22;20011;-71
2021/06/15 05:03:55;;;;;;;1.75;1.15;;;;;;;26.57;30.45;100412.50;6337800;22;20085;-72
2021/06/15 05:06:21;;;;;;;1.02;0.90;;;;;;;26.76;30.09;100419.09;6337468;22;20009;-71
2021/06/15 05:09:07;;;;;;;2.08;0.98;;;;;;;25.42;30.69;100415.88;6337494;22;20011;-71
2021/06/15 05:11:38;;;;;;;3.72;1.77;;;;;;;25.71;30.09;100417.72;6337782;22;20068;-71
2021/06/15 05:14:13;;;;;;;5.63;1.83;;;;;;;24.92;31.43;100423.19;6337490;22;20081;-70
2021/06/15 05:16:43;;;;;;;3.22;1.90;;;;;;;24.83;31.15;100421.06;6337861;22;20006;-71
2021/06/15 05:19:09;;;;;;;7.70;2.22;;;;;;;25.04;31.26;100422.41;6337402;22;20068;-70
2021/06/15 05:21:45;;;;;;;2.63;2.30;;;;;;;25.39;30.56;100428.19;6337407;22;20365;-70
2021/06/15 05:24:48;;;;;;;1.98;1.80;;;;;;;25.43;30.58;100445.16;6340653;22;20030;-71
2021/06/15 05:27:17;;;;;;;2.03;1.70;;;;;;;25.40;30.78;100446.84;6330745;22;20521;-72
2021/06/15 05:29:43;;;;;;;1.88;1.77;;;;;;;25.35;30.75;100447.44;6339480;22;20013;-71
2021/06/15 05:32:11;;;;;;;3.58;1.67;;;;;;;24.76;32.20;100449.72;6339670;22;20082;-72
2021/06/15 05:34:38;;;;;;;3.40;1.40;;;;;;;24.93;30.76;100424.81;6340878;22;20003;-72
2021/06/15 05:37:07;;;;;;;3.97;1.63;;;;;;;25.24;31.22;100442.09;6339519;22;20006;-71
2021/06/15 05:39:36;;;;;;;1.13;1.00;;;;;;;24.62;31.98;100438.00;6338717;22;20009;-73
2021/06/15 05:42:06;;;;;;;2.45;0.98;;;;;;;24.85;32.20;100426.28;6341138;22;20003;-72
2021/06/15 05:44:33;;;;;;;2.17;1.20;;;;;;;25.62;31.84;100438.38;6313001;22;20005;-73
2021/06/15 05:47:02;;;;;;;4.50;1.13;;;;;;;25.08;31.63;100436.53;6313753;22;20434;-71
2021/06/15 05:49:40;;;;;;;2.17;1.40;;;;;;;25.41;32.22;100430.56;6312909;22;20007;-72
2021/06/15 05:52:09;;;;;;;2.25;1.48;;;;;;;26.31;31.59;100438.34;6312247;22;20010;-71
2021/06/15 05:54:37;;;;;;;1.17;1.08;;;;;;;25.58;32.25;100434.88;6313033;22;20014;-72
2021/06/15 05:57:03;;;;;;;2.88;1.17;;;;;;;25.08;33.37;100433.69;6312855;22;20052;-70
2021/06/15 05:59:33;;;;;;;1.80;1.15;;;;;;;25.02;33.22;100439.13;6313396;22;20006;-75
2021/06/15 06:01:58;;;;;;;1.65;1.25;;;;;;;25.06;33.63;100441.91;6312727;22;20007;-72
2021/06/15 06:04:47;;;;;;;1.88;1.27;;;;;;;25.53;32.40;100444.78;6313316;22;20083;-71
2021/06/15 06:09:56;;;;;;;5.15;1.60;;;;;;;24.00;36.33;100430.41;6340601;22;20065;-71
2021/06/15 06:12:28;;;;;;;4.35;1.60;;;;;;;24.11;35.93;100440.69;6313001;22;20003;-72
2021/06/15 06:14:53;;;;;;;4.22;1.63;;;;;;;24.73;35.45;100444.16;6312642;22;20002;-72
2021/06/15 06:17:19;;;;;;;4.32;1.45;;;;;;;24.28;35.80;100448.69;6312711;22;20021;-72
2021/06/15 06:19:46;;;;;;;4.15;1.70;;;;;;;24.45;36.00;100449.47;6313471;22;20046;-72
2021/06/15 06:22:13;;;;;;;2.08;1.33;;;;;;;24.44;35.66;100456.38;6313118;22;20010;-71
2021/06/15 06:24:39;;;;;;;3.35;1.20;;;;;;;23.76;37.17;100451.81;6339773;22;20034;-70
2021/06/15 06:27:07;;;;;;;4.45;1.40;;;;;;;23.74;37.13;100445.75;6312435;22;20449;-70
2021/06/15 06:29:33;;;;;;;5.53;2.17;;;;;;;23.77;36.71;100442.84;6311798;22;20030;-71
2021/06/15 06:32:04;;;;;;;1.80;1.58;;;;;;;23.63;37.61;100429.00;6311846;22;20037;-71
2021/06/15 06:34:29;;;;;;;1.90;1.20;;;;;;;23.71;36.96;100432.47;6311470;22;20006;-71
2021/06/15 06:36:57;;;;;;;2.42;1.45;;;;;;;23.69;36.23;100443.47;6312023;22;20017;-71
2021/06/15 06:39:23;;;;;;;1.75;1.55;;;;;;;24.03;35.87;100440.91;6311922;22;20034;-70
2021/06/15 06:41:52;;;;;;;3.05;1.40;;;;;;;23.29;37.39;100449.34;6280662;22;20060;-71
2021/06/15 06:44:18;;;;;;;3.55;1.40;;;;;;;23.49;37.09;100441.53;6280681;22;20439;-71
2021/06/15 06:46:49;;;;;;;1.70;1.60;;;;;;;23.71;35.96;100441.00;6281424;22;20003;-71
2021/06/15 06:49:17;;;;;;;1.42;1.33;;;;;;;23.75;36.32;100445.31;6281297;22;20501;-71
2021/06/15 06:51:43;;;;;;;2.85;1.48;;;;;;;23.76;36.28;100452.63;6281054;22;20007;-71
2021/06/15 06:54:11;;;;;;;1.73;1.50;;;;;;;23.51;36.57;100444.72;6280901;22;20389;-70
2021/06/15 06:56:40;;;;;;;1.88;1.70;;;;;;;22.98;37.08;100452.53;6281488;22;20319;-70
2021/06/15 06:59:05;;;;;;;2.55;1.48;;;;;;;23.23;35.71;100456.81;6280303;22;20008;-72
2021/06/15 07:01:33;;;;;;;2.50;1.77;;;;;;;23.75;36.01;100445.31;6281247;22;20366;-73
2021/06/15 07:04:02;;;;;;;1.83;1.63;;;;;;;23.87;35.79;100440.97;6280997;22;20057;-69
2021/06/15 07:06:29;;;;;;;1.95;1.60;;;;;;;24.34;33.90;100448.94;6307335;22;20009;-70
2021/06/15 07:09:00;;;;;;;1.30;1.20;;;;;;;23.99;34.23;100448.72;6281311;22;20315;-70
2021/06/15 07:11:26;;;;;;;2.45;1.67;;;;;;;23.97;34.47;100461.78;6281362;22;20034;-70
2021/06/15 07:13:52;;;;;;;1.52;1.27;;;;;;;24.33;31.93;100455.88;6280796;22;19999;-70
2021/06/15 07:16:17;;;;;;;1.67;1.58;;;;;;;24.65;31.46;100429.34;6280612;22;20034;-69
2021/06/15 07:18:46;;;;;;;1.45;1.38;;;;;;;25.39;31.64;100462.34;6280042;22;20034;-71
2021/06/15 07:21:12;;;;;;;2.15;1.67;;;;;;;25.41;32.10;100459.03;6281561;22;20311;-70
2021/06/15 07:23:39;;;;;;;1.52;1.23;;;;;;;25.59;29.92;100459.25;6280702;22;20003;-70
2021/06/15 07:26:05;;;;;;;1.33;1.20;;;;;;;25.34;30.67;100460.88;6280671;22;19999;-70
2021/06/15 07:28:30;;;;;;;2.38;1.25;;;;;;;25.96;29.04;100466.09;6280826;22;20091;-70
2021/06/15 07:30:59;;;;;;;1.77;1.42;;;;;;;25.69;30.14;100471.53;6280549;22;20078;-71
2021/06/15 07:33:24;;;;;;;1.77;1.17;;;;;;;25.54;29.64;100479.75;6306440;22;20003;-70
2021/06/15 07:35:53;;;;;;;1.00;1.00;;;;;;;26.42;28.13;100472.19;6281174;22;20010;-70
2021/06/15 07:38:19;;;;;;;1.13;1.00;;;;;;;25.23;29.94;100483.22;6281278;22;20377;-70
2021/06/15 07:40:47;;;;;;;1.35;1.23;;;;;;;25.46;30.33;100472.69;6310002;22;20021;-72
2021/06/15 07:43:14;;;;;;;1.23;1.13;;;;;;;25.72;30.19;100462.03;6337747;22;20430;-69
2021/06/15 07:45:40;;;;;;;1.33;1.20;;;;;;;25.43;29.83;100463.03;6337383;22;20038;-72
2021/06/15 07:48:11;;;;;;;1.13;1.02;;;;;;;25.52;29.04;100466.00;6337750;22;20079;-69
2021/06/15 07:50:46;;;;;;;1.17;1.08;;;;;;;26.16;28.50;100470.69;6338364;22;20018;-72
2021/06/15 07:53:16;;;;;;;1.60;1.10;;;;;;;26.20;28.59;100465.66;6338028;22;20009;-71
2021/06/15 07:55:42;;;;;;;1.60;1.35;;;;;;;27.27;26.80;100459.47;6338334;22;20010;-73
2021/06/15 07:58:08;;;;;;;2.08;1.15;;;;;;;28.36;25.22;100462.91;6337820;22;20438;-72
2021/06/15 08:00:39;;;;;;;1.00;1.00;;;;;;;27.65;26.08;100473.34;6338223;22;20017;-71
2021/06/15 08:03:10;;;;;;;2.65;1.33;;;;;;;27.26;26.66;100462.75;6337861;22;20098;-73
2021/06/15 08:05:39;;;;;;;1.17;1.10;;;;;;;28.10;25.09;100457.50;6337554;22;20014;-72
2021/06/15 08:08:05;;;;;;;2.22;1.40;;;;;;;27.47;26.36;100467.59;6338234;22;20426;-72
2021/06/15 08:10:31;;;;;;;5.55;1.48;;;;;;;27.38;25.81;100459.81;6338175;22;20082;-72
2021/06/15 08:13:01;;;;;;;1.35;1.17;;;;;;;27.14;25.88;100461.63;6337979;22;20006;-73
2021/06/15 08:15:37;;;;;;;2.05;1.20;;;;;;;26.78;27.01;100463.03;6338955;22;20003;-71
2021/06/15 08:18:03;;;;;;;1.88;1.27;;;;;;;25.86;28.16;100462.38;6337916;22;20011;-71
2021/06/15 08:20:32;;;;;;;3.17;1.25;;;;;;;26.11;27.78;100454.97;6338515;22;20017;-71
2021/06/15 08:22:59;;;;;;;1.55;1.20;;;;;;;25.67;28.81;100462.63;6337715;22;20010;-70
2021/06/15 08:25:24;;;;;;;1.40;1.30;;;;;;;25.39;29.50;100465.19;6337674;22;20435;-69
2021/06/15 08:27:50;;;;;;;1.20;1.10;;;;;;;25.70;28.98;100464.56;6337589;22;20014;-70
2021/06/15 08:30:19;;;;;;;1.05;1.05;;;;;;;25.37;29.59;100470.56;6338296;22;20095;-69
2021/06/15 08:32:48;;;;;;;2.30;1.20;;;;;;;25.01;29.88;100465.22;6337737;22;20006;-69
2021/06/15 08:35:14;;;;;;;1.65;1.30;;;;;;;25.10;30.90;100462.50;6337762;22;20003;-70
2021/06/15 08:37:42;;;;;;;1.40;1.17;;;;;;;25.64;29.03;100467.22;6337748;22;20013;-69
2021/06/15 08:40:14;;;;;;;1.92;1.40;;;;;;;25.67;28.99;100465.47;6337370;22;20046;-70
2021/06/15 08:42:43;;;;;;;1.10;1.08;;;;;;;25.91;28.49;100468.75;6337608;22;20003;-70
2021/06/15 08:45:11;;;;;;;2.70;1.17;;;;;;;25.06;32.12;100467.53;6337901;22;20007;-70
2021/06/15 08:47:42;;;;;;;1.58;1.48;;;;;;;24.99;31.84;100479.91;6338169;22;20006;-70
2021/06/15 08:50:18;;;;;;;3.10;1.52;;;;;;;25.69;31.63;100468.69;6339054;22;20003;-70
2021/06/15 08:52:45;;;;;;;1.88;1.50;;;;;;;25.04;31.92;100462.25;6337837;22;20430;-70
2021/06/15 08:55:13;;;;;;;1.35;1.15;;;;;;;25.18;30.66;100438.22;6337209;22;20010;-71
2021/06/15 08:57:40;;;;;;;2.35;1.52;;;;;;;25.15;29.67;100461.16;6339416;22;20013;-69
2021/06/15 09:00:09;;;;;;;3.22;1.40;;;;;;;25.43;30.60;100457.34;6339557;22;20010;-70
2021/06/15 09:02:46;;;;;;;1.92;1.60;;;;;;;25.47;31.28;100475.13;6341357;22;20006;-71
2021/06/15 09:05:19;;;;;;;2.63;1.50;;;;;;;25.98;29.76;100457.88;6339113;22;20082;-70
2021/06/15 09:07:57;;;;;;;2.40;2.00;;;;;;;25.80;30.23;100469.91;6339274;22;20034;-70
2021/06/15 09:10:27;;;;;;;1.85;1.58;;;;;;;25.71;31.03;100475.50;6339943;22;20002;-69
2021/06/15 09:12:56;;;;;;;2.05;1.85;;;;;;;25.79;32.14;100456.94;6339987;22;20010;-71
2021/06/15 09:15:23;;;;;;;1.70;1.20;;;;;;;25.62;32.45;100466.88;6339633;22;20014;-69
2021/06/15 09:17:51;;;;;;;3.80;1.35;;;;;;;25.60;32.74;100470.16;6340139;22;20029;-69
2021/06/15 09:20:25;;;;;;;1.75;1.38;;;;;;;25.96;30.52;100460.41;6339081;22;19999;-69
2021/06/15 09:23:06;;;;;;;3.72;1.55;;;;;;;25.83;31.05;100459.63;6341382;22;20007;-69
2021/06/15 09:25:33;;;;;;;1.92;1.50;;;;;;;25.45;30.20;100459.72;6339063;22;20064;-72
2021/06/15 09:28:15;;;;;;;1.88;1.58;;;;;;;25.88;31.52;100453.34;6341141;22;20073;-70
2021/06/15 09:30:55;;;;;;;4.10;1.90;;;;;;;26.88;29.82;100458.16;6339201;22;20499;-70
2021/06/15 09:33:48;;;;;;;2.88;1.40;;;;;;;26.36;29.03;100465.44;6339429;22;20307;-70
2021/06/15 09:36:17;;;;;;;2.78;1.35;;;;;;;27.05;28.23;100459.50;6338985;22;20003;-69
2021/06/15 09:39:03;;;;;;;1.73;1.40;;;;;;;27.60;27.97;100471.13;6340162;22;20007;-70
2021/06/15 09:41:34;;;;;;;3.92;1.50;;;;;;;27.82;28.43;100470.22;6338286;22;20014;-71
2021/06/15 09:44:18;;;;;;;1.70;1.60;;;;;;;26.89;28.79;100454.03;6338877;22;20068;-70
2021/06/15 09:46:49;;;;;;;1.85;1.35;;;;;;;26.97;29.19;100466.78;6339737;22;20007;-70
2021/06/15 09:49:41;;;;;;;1.77;1.63;;;;;;;26.55;29.60;100458.63;6338939;22;20007;-70
2021/06/15 09:52:21;;;;;;;2.58;1.75;;;;;;;26.88;29.22;100458.16;6339409;22;20014;-69
2021/06/15 09:54:51;;;;;;;1.75;1.30;;;;;;;27.13;28.23;100454.31;6339655;22;20314;-70
2021/06/15 09:57:22;;;;;;;2.60;1.38;;;;;;;27.65;27.48;100444.75;6339726;22;20017;-70
2021/06/15 10:00:12;;;;;;;1.55;1.45;;;;;;;28.03;27.21;100449.25;6338909;22;20013;-71
2021/06/15 10:02:51;;;;;;;2.05;1.40;;;;;;;28.31;27.05;100438.56;6338704;22;20085;-71
2021/06/15 10:05:27;;;;;;;1.45;1.35;;;;;;;27.74;27.63;100452.56;6338890;22;20453;-71
2021/06/15 10:07:55;;;;;;;3.15;1.50;;;;;;;27.83;27.40;100463.22;6340014;22;20003;-73
2021/06/15 10:10:26;;;;;;;1.65;1.55;;;;;;;26.89;28.20;100454.81;6340861;22;20002;-70
2021/06/15 10:12:52;;;;;;;3.33;1.30;;;;;;;27.25;27.68;100444.03;6338814;22;20006;-71
2021/06/15 10:15:22;;;;;;;1.63;1.52;;;;;;;27.67;27.69;100447.94;6338847;22;20002;-71
2021/06/15 10:17:49;;;;;;;1.48;1.38;;;;;;;27.92;27.24;100446.88;6339088;22;20049;-71
2021/06/15 10:20:23;;;;;;;2.72;1.83;;;;;;;27.72;27.53;100449.41;6338759;22;20006;-72
2021/06/15 10:22:53;;;;;;;3.78;2.08;;;;;;;28.49;26.51;100445.53;6338929;22;20003;-72
2021/06/15 10:25:21;;;;;;;2.17;1.92;;;;;;;28.16;27.13;100444.13;6338578;22;20007;-70
2021/06/15 10:27:49;;;;;;;3.45;1.75;;;;;;;28.04;27.16;100447.97;6339051;22;20005;-71
2021/06/15 10:30:17;;;;;;;1.83;1.73;;;;;;;28.23;26.03;100436.50;6338560;22;20029;-70
2021/06/15 10:32:53;;;;;;;2.00;1.85;;;;;;;28.22;26.26;100447.16;6338555;22;20013;-72
2021/06/15 10:35:33;;;;;;;1.80;1.63;;;;;;;28.26;25.34;100442.06;6338605;22;20003;-70
2021/06/15 10:38:00;;;;;;;1.45;1.35;;;;;;;28.14;25.48;100440.97;6340355;22;20430;-71
2021/06/15 10:40:33;;;;;;;3.63;1.40;;;;;;;28.19;25.38;100433.81;6337751;22;20011;-70
2021/06/15 10:43:21;;;;;;;1.40;1.30;;;;;;;29.18;23.66;100425.41;6339047;22;20010;-70
2021/06/15 10:45:52;;;;;;;2.17;1.40;;;;;;;30.22;22.94;100417.97;6338490;22;20093;-70
2021/06/15 10:48:20;;;;;;;4.70;1.90;;;;;;;30.18;23.70;100420.22;6340102;22;20085;-71
2021/06/15 10:50:47;;;;;;;1.98;1.73;;;;;;;29.29;25.34;100409.75;6338704;22;20021;-71
2021/06/15 10:53:40;;;;;;;3.78;2.33;;;;;;;30.19;23.86;100436.16;6338746;22;20033;-73
2021/06/15 10:56:11;;;;;;;1.75;1.42;;;;;;;30.83;23.37;100431.03;6338275;22;20006;-72
2021/06/15 10:58:43;;;;;;;1.77;1.55;;;;;;;31.45;22.17;100424.13;6338765;22;20034;-72
2021/06/15 11:01:14;;;;;;;1.77;1.15;;;;;;;31.59;22.21;100423.28;6338453;22;20007;-72
2021/06/15 11:03:50;;;;;;;2.03;1.48;;;;;;;31.23;22.36;100425.38;6338230;22;20101;-72
2021/06/15 11:06:20;;;;;;;6.45;1.52;;;;;;;31.67;21.74;100420.75;6340090;22;20003;-73
2021/06/15 11:08:46;;;;;;;2.35;1.70;;;;;;;32.01;21.13;100422.78;6338340;22;20089;-72
2021/06/15 11:11:15;;;;;;;3.15;1.80;;;;;;;32.31;20.96;100400.28;6338463;22;20013;-72
2021/06/15 11:13:48;;;;;;;2.13;1.45;;;;;;;32.19;20.66;100415.88;6338275;22;20010;-73
2021/06/15 11:16:26;;;;;;;1.90;1.45;;;;;;;32.21;20.85;100407.53;6338641;22;20007;-72
2021/06/15 11:19:14;;;;;;;2.90;1.38;;;;;;;32.05;21.04;100394.53;6338081;22;20003;-72
2021/06/15 11:21:49;;;;;;;1.50;1.40;;;;;;;30.71;22.08;100393.50;6339217;22;20100;-72
2021/06/15 11:24:23;;;;;;;2.17;1.65;;;;;;;30.21;23.18;100393.44;6337998;22;20006;-72
2021/06/15 11:26:54;;;;;;;1.45;1.15;;;;;;;30.46;22.80;100391.22;6338760;22;20003;-73
2021/06/15 11:29:35;;;;;;;2.20;2.00;;;;;;;30.56;23.89;100395.56;6338420;22;20490;-72
2021/06/15 11:32:22;;;;;;;2.50;1.90;;;;;;;30.42;23.64;100382.84;6337658;22;20011;-72
2021/06/15 11:34:53;;;;;;;4.93;1.55;;;;;;;29.79;23.89;100381.38;6337982;22;20013;-70
2021/06/15 11:37:33;;;;;;;1.58;1.40;;;;;;;30.45;22.90;100375.31;6338681;22;20007;-69
2021/06/15 11:40:12;;;;;;;2.65;1.55;;;;;;;31.10;22.60;100383.91;6339075;22;20389;-70
2021/06/15 11:42:41;;;;;;;2.03;1.63;;;;;;;30.73;22.78;100385.19;6311720;22;20003;-70
2021/06/15 11:45:27;;;;;;;1.50;1.40;;;;;;;30.50;23.33;100378.25;6339246;22;20006;-70
2021/06/15 11:48:12;;;;;;;7.82;1.60;;;;;;;30.64;22.62;100376.66;6310726;22;20434;-70